sensor_id;sensor_type;location;lat;lon;timestamp;P1;durP1;ratioP1;P2;durP2;ratioP2
27939;SDS011;15275;51.716;14.324;2023-02-13T00:02:14;19.73;;;8.70;;
27939;SDS011;15275;51.716;14.324;2023-02-13T00:04:40;18.30;;;9.10;;
27939;SDS011;15275;51.716;14.324;2023-02-13T00:07:09;16.23;;;8.32;;
27939;SDS011;15275;51.716;14.324;2023-02-13T00:09:36;19.20;;;9.40;;
27939;SDS011;15275;51.716;14.324;2023-02-13T00:12:03;19.58;;;8.90;;
27939;SDS011;15275;51.716;14.324;2023-02-13T00:14:33;21.80;;;9.50;;
27939;SDS011;15275;51.716;14.324;2023-02-13T00:17:00;21.85;;;11.32;;
27939;SDS011;15275;51.716;14.324;2023-02-13T00:19:26;18.10;;;8.73;;
27939;SDS011;15275;51.716;14.324;2023-02-13T00:21:52;19.48;;;9.43;;
27939;SDS011;15275;51.716;14.324;2023-02-13T00:24:18;18.80;;;9.50;;
27939;SDS011;15275;51.716;14.324;2023-02-13T00:26:43;18.80;;;9.07;;
27939;SDS011;15275;51.716;14.324;2023-02-13T00:29:09;22.63;;;9.70;;
27939;SDS011;15275;51.716;14.324;2023-02-13T00:31:35;20.70;;;9.65;;
27939;SDS011;15275;51.716;14.324;2023-02-13T00:34:01;23.35;;;10.13;;
27939;SDS011;15275;51.716;14.324;2023-02-13T00:36:27;22.30;;;9.68;;
27939;SDS011;15275;51.716;14.324;2023-02-13T00:38:53;16.65;;;8.75;;
27939;SDS011;15275;51.716;14.324;2023-02-13T00:41:19;20.17;;;9.60;;
27939;SDS011;15275;51.716;14.324;2023-02-13T00:43:46;20.27;;;9.13;;
27939;SDS011;15275;51.716;14.324;2023-02-13T00:46:13;16.65;;;7.93;;
27939;SDS011;15275;51.716;14.324;2023-02-13T00:48:40;17.83;;;8.52;;
27939;SDS011;15275;51.716;14.324;2023-02-13T00:51:07;23.13;;;9.27;;
27939;SDS011;15275;51.716;14.324;2023-02-13T00:53:33;18.80;;;9.18;;
27939;SDS011;15275;51.716;14.324;2023-02-13T00:56:00;20.85;;;9.20;;
27939;SDS011;15275;51.716;14.324;2023-02-13T00:58:26;18.88;;;9.38;;
27939;SDS011;15275;51.716;14.324;2023-02-13T01:00:53;16.88;;;8.23;;
27939;SDS011;15275;51.716;14.324;2023-02-13T01:03:19;12.32;;;7.55;;
27939;SDS011;15275;51.716;14.324;2023-02-13T01:05:46;18.67;;;8.77;;
27939;SDS011;15275;51.716;14.324;2023-02-13T01:08:13;16.88;;;8.70;;
27939;SDS011;15275;51.716;14.324;2023-02-13T01:10:40;18.00;;;9.00;;
27939;SDS011;15275;51.716;14.324;2023-02-13T01:13:07;20.48;;;9.18;;
27939;SDS011;15275;51.716;14.324;2023-02-13T01:15:34;13.68;;;7.00;;
27939;SDS011;15275;51.716;14.324;2023-02-13T01:18:00;16.40;;;7.75;;
27939;SDS011;15275;51.716;14.324;2023-02-13T01:20:27;18.02;;;8.25;;
27939;SDS011;15275;51.716;14.324;2023-02-13T01:22:54;17.27;;;9.25;;
27939;SDS011;15275;51.716;14.324;2023-02-13T01:25:22;15.65;;;8.50;;
27939;SDS011;15275;51.716;14.324;2023-02-13T01:27:48;16.55;;;7.80;;
27939;SDS011;15275;51.716;14.324;2023-02-13T01:30:15;18.90;;;9.10;;
27939;SDS011;15275;51.716;14.324;2023-02-13T01:32:42;16.70;;;8.07;;
27939;SDS011;15275;51.716;14.324;2023-02-13T01:35:11;16.05;;;7.88;;
27939;SDS011;15275;51.716;14.324;2023-02-13T01:37:38;17.05;;;8.48;;
27939;SDS011;15275;51.716;14.324;2023-02-13T01:40:04;16.65;;;7.80;;
27939;SDS011;15275;51.716;14.324;2023-02-13T01:42:33;15.98;;;8.18;;
27939;SDS011;15275;51.716;14.324;2023-02-13T01:45:03;18.00;;;8.88;;
27939;SDS011;15275;51.716;14.324;2023-02-13T01:47:48;18.52;;;8.90;;
27939;SDS011;15275;51.716;14.324;2023-02-13T01:50:33;19.27;;;7.80;;
27939;SDS011;15275;51.716;14.324;2023-02-13T01:55:34;19.83;;;9.32;;
27939;SDS011;15275;51.716;14.324;2023-02-13T01:58:13;17.30;;;8.63;;
27939;SDS011;15275;51.716;14.324;2023-02-13T02:00:42;19.33;;;8.48;;
27939;SDS011;15275;51.716;14.324;2023-02-13T02:03:16;28.23;;;10.13;;
27939;SDS011;15275;51.716;14.324;2023-02-13T02:05:56;20.48;;;9.38;;
27939;SDS011;15275;51.716;14.324;2023-02-13T02:08:23;22.05;;;10.23;;
27939;SDS011;15275;51.716;14.324;2023-02-13T02:10:49;28.13;;;10.43;;
27939;SDS011;15275;51.716;14.324;2023-02-13T02:13:17;30.48;;;11.63;;
27939;SDS011;15275;51.716;14.324;2023-02-13T02:15:45;24.80;;;11.32;;
27939;SDS011;15275;51.716;14.324;2023-02-13T02:18:17;25.08;;;11.05;;
27939;SDS011;15275;51.716;14.324;2023-02-13T02:20:56;25.58;;;10.88;;
27939;SDS011;15275;51.716;14.324;2023-02-13T02:26:38;25.90;;;10.32;;
27939;SDS011;15275;51.716;14.324;2023-02-13T02:35:10;25.20;;;11.55;;
27939;SDS011;15275;51.716;14.324;2023-02-13T02:41:41;30.67;;;12.68;;
27939;SDS011;15275;51.716;14.324;2023-02-13T02:52:41;36.22;;;13.15;;
27939;SDS011;15275;51.716;14.324;2023-02-13T02:55:31;28.98;;;12.52;;
27939;SDS011;15275;51.716;14.324;2023-02-13T02:58:17;26.75;;;13.02;;
27939;SDS011;15275;51.716;14.324;2023-02-13T03:01:23;33.13;;;13.25;;
27939;SDS011;15275;51.716;14.324;2023-02-13T03:04:25;33.13;;;12.57;;
27939;SDS011;15275;51.716;14.324;2023-02-13T03:07:17;35.17;;;13.32;;
27939;SDS011;15275;51.716;14.324;2023-02-13T03:09:45;28.77;;;12.40;;
27939;SDS011;15275;51.716;14.324;2023-02-13T03:12:40;37.95;;;13.73;;
27939;SDS011;15275;51.716;14.324;2023-02-13T03:15:31;30.48;;;13.55;;
27939;SDS011;15275;51.716;14.324;2023-02-13T03:18:21;33.53;;;14.15;;
27939;SDS011;15275;51.716;14.324;2023-02-13T03:21:09;31.08;;;13.63;;
27939;SDS011;15275;51.716;14.324;2023-02-13T03:24:41;30.55;;;13.07;;
27939;SDS011;15275;51.716;14.324;2023-02-13T03:34:03;25.55;;;11.52;;
27939;SDS011;15275;51.716;14.324;2023-02-13T03:39:43;29.33;;;12.40;;
27939;SDS011;15275;51.716;14.324;2023-02-13T03:42:38;33.15;;;12.50;;
27939;SDS011;15275;51.716;14.324;2023-02-13T03:45:42;28.05;;;12.02;;
27939;SDS011;15275;51.716;14.324;2023-02-13T03:48:17;31.33;;;13.38;;
27939;SDS011;15275;51.716;14.324;2023-02-13T03:51:22;29.60;;;11.80;;
27939;SDS011;15275;51.716;14.324;2023-02-13T03:53:55;29.15;;;13.20;;
27939;SDS011;15275;51.716;14.324;2023-02-13T03:56:25;32.75;;;13.90;;
27939;SDS011;15275;51.716;14.324;2023-02-13T03:59:15;30.83;;;13.63;;
27939;SDS011;15275;51.716;14.324;2023-02-13T04:04:39;29.95;;;14.10;;
27939;SDS011;15275;51.716;14.324;2023-02-13T04:07:17;29.90;;;13.20;;
27939;SDS011;15275;51.716;14.324;2023-02-13T04:09:59;30.98;;;13.07;;
27939;SDS011;15275;51.716;14.324;2023-02-13T04:15:30;22.42;;;10.00;;
27939;SDS011;15275;51.716;14.324;2023-02-13T04:20:36;20.15;;;9.15;;
27939;SDS011;15275;51.716;14.324;2023-02-13T04:23:07;19.25;;;9.73;;
27939;SDS011;15275;51.716;14.324;2023-02-13T04:25:36;18.98;;;8.70;;
27939;SDS011;15275;51.716;14.324;2023-02-13T04:28:04;15.00;;;7.53;;
27939;SDS011;15275;51.716;14.324;2023-02-13T04:30:31;18.65;;;8.88;;
27939;SDS011;15275;51.716;14.324;2023-02-13T04:32:57;15.25;;;7.78;;
27939;SDS011;15275;51.716;14.324;2023-02-13T04:35:23;18.05;;;7.75;;
27939;SDS011;15275;51.716;14.324;2023-02-13T04:37:49;14.63;;;7.32;;
27939;SDS011;15275;51.716;14.324;2023-02-13T04:40:15;16.27;;;7.78;;
27939;SDS011;15275;51.716;14.324;2023-02-13T04:42:41;15.55;;;7.30;;
27939;SDS011;15275;51.716;14.324;2023-02-13T04:45:06;16.55;;;7.55;;
27939;SDS011;15275;51.716;14.324;2023-02-13T04:47:33;15.98;;;6.80;;
27939;SDS011;15275;51.716;14.324;2023-02-13T04:50:00;13.85;;;7.07;;
27939;SDS011;15275;51.716;14.324;2023-02-13T04:52:26;18.98;;;8.63;;
27939;SDS011;15275;51.716;14.324;2023-02-13T04:54:52;16.42;;;8.48;;
27939;SDS011;15275;51.716;14.324;2023-02-13T04:57:18;15.93;;;7.88;;
27939;SDS011;15275;51.716;14.324;2023-02-13T04:59:44;16.35;;;7.07;;
27939;SDS011;15275;51.716;14.324;2023-02-13T05:02:09;13.93;;;6.60;;
27939;SDS011;15275;51.716;14.324;2023-02-13T05:04:35;13.20;;;6.95;;
27939;SDS011;15275;51.716;14.324;2023-02-13T05:07:01;16.10;;;6.60;;
27939;SDS011;15275;51.716;14.324;2023-02-13T05:09:27;11.05;;;6.03;;
27939;SDS011;15275;51.716;14.324;2023-02-13T05:11:53;13.55;;;6.22;;
27939;SDS011;15275;51.716;14.324;2023-02-13T05:14:19;10.40;;;5.75;;
27939;SDS011;15275;51.716;14.324;2023-02-13T05:16:45;13.48;;;6.50;;
27939;SDS011;15275;51.716;14.324;2023-02-13T05:19:11;10.98;;;5.82;;
27939;SDS011;15275;51.716;14.324;2023-02-13T05:21:37;10.73;;;5.95;;
27939;SDS011;15275;51.716;14.324;2023-02-13T05:24:21;14.60;;;6.60;;
27939;SDS011;15275;51.716;14.324;2023-02-13T05:26:47;12.20;;;6.47;;
27939;SDS011;15275;51.716;14.324;2023-02-13T05:29:13;13.73;;;5.32;;
27939;SDS011;15275;51.716;14.324;2023-02-13T05:31:47;12.05;;;6.45;;
27939;SDS011;15275;51.716;14.324;2023-02-13T05:34:16;15.02;;;6.18;;
27939;SDS011;15275;51.716;14.324;2023-02-13T05:36:42;11.88;;;5.50;;
27939;SDS011;15275;51.716;14.324;2023-02-13T05:41:38;12.07;;;5.78;;
27939;SDS011;15275;51.716;14.324;2023-02-13T05:44:04;11.82;;;6.38;;
27939;SDS011;15275;51.716;14.324;2023-02-13T05:46:30;16.90;;;6.35;;
27939;SDS011;15275;51.716;14.324;2023-02-13T05:48:56;14.55;;;6.47;;
27939;SDS011;15275;51.716;14.324;2023-02-13T05:51:22;13.05;;;6.63;;
27939;SDS011;15275;51.716;14.324;2023-02-13T05:53:48;10.70;;;5.57;;
27939;SDS011;15275;51.716;14.324;2023-02-13T05:56:14;13.65;;;6.60;;
27939;SDS011;15275;51.716;14.324;2023-02-13T05:58:40;12.48;;;6.13;;
27939;SDS011;15275;51.716;14.324;2023-02-13T06:01:06;15.23;;;5.85;;
27939;SDS011;15275;51.716;14.324;2023-02-13T06:03:32;11.63;;;5.32;;
27939;SDS011;15275;51.716;14.324;2023-02-13T06:05:58;10.25;;;5.22;;
27939;SDS011;15275;51.716;14.324;2023-02-13T06:08:24;13.60;;;5.53;;
27939;SDS011;15275;51.716;14.324;2023-02-13T06:10:50;8.68;;;4.72;;
27939;SDS011;15275;51.716;14.324;2023-02-13T06:13:17;9.35;;;4.72;;
27939;SDS011;15275;51.716;14.324;2023-02-13T06:15:43;9.00;;;4.85;;
27939;SDS011;15275;51.716;14.324;2023-02-13T06:18:10;9.38;;;4.70;;
27939;SDS011;15275;51.716;14.324;2023-02-13T06:20:36;10.45;;;4.88;;
27939;SDS011;15275;51.716;14.324;2023-02-13T06:23:02;13.88;;;4.88;;
27939;SDS011;15275;51.716;14.324;2023-02-13T06:25:29;12.60;;;5.25;;
27939;SDS011;15275;51.716;14.324;2023-02-13T06:27:55;12.90;;;5.47;;
27939;SDS011;15275;51.716;14.324;2023-02-13T06:30:21;9.82;;;4.50;;
27939;SDS011;15275;51.716;14.324;2023-02-13T06:32:47;12.10;;;4.65;;
27939;SDS011;15275;51.716;14.324;2023-02-13T06:35:13;9.07;;;4.55;;
27939;SDS011;15275;51.716;14.324;2023-02-13T06:37:40;11.13;;;5.25;;
27939;SDS011;15275;51.716;14.324;2023-02-13T06:40:10;9.20;;;4.82;;
27939;SDS011;15275;51.716;14.324;2023-02-13T06:42:37;8.20;;;4.32;;
27939;SDS011;15275;51.716;14.324;2023-02-13T06:45:04;11.88;;;4.85;;
27939;SDS011;15275;51.716;14.324;2023-02-13T06:47:31;12.55;;;4.95;;
27939;SDS011;15275;51.716;14.324;2023-02-13T06:49:57;10.10;;;5.93;;
27939;SDS011;15275;51.716;14.324;2023-02-13T06:52:22;10.43;;;4.68;;
27939;SDS011;15275;51.716;14.324;2023-02-13T06:54:48;8.82;;;5.05;;
27939;SDS011;15275;51.716;14.324;2023-02-13T06:57:14;10.80;;;4.75;;
27939;SDS011;15275;51.716;14.324;2023-02-13T06:59:41;8.45;;;5.07;;
27939;SDS011;15275;51.716;14.324;2023-02-13T07:02:10;11.82;;;4.80;;
27939;SDS011;15275;51.716;14.324;2023-02-13T07:04:37;10.35;;;5.38;;
27939;SDS011;15275;51.716;14.324;2023-02-13T07:07:03;10.80;;;5.10;;
27939;SDS011;15275;51.716;14.324;2023-02-13T07:09:30;9.80;;;5.10;;
27939;SDS011;15275;51.716;14.324;2023-02-13T07:11:56;10.93;;;4.82;;
27939;SDS011;15275;51.716;14.324;2023-02-13T07:14:22;10.10;;;4.95;;
27939;SDS011;15275;51.716;14.324;2023-02-13T07:16:48;10.50;;;5.40;;
27939;SDS011;15275;51.716;14.324;2023-02-13T07:19:14;10.40;;;4.93;;
27939;SDS011;15275;51.716;14.324;2023-02-13T07:21:40;9.60;;;4.65;;
27939;SDS011;15275;51.716;14.324;2023-02-13T07:24:06;8.63;;;5.07;;
27939;SDS011;15275;51.716;14.324;2023-02-13T07:26:32;9.88;;;4.20;;
27939;SDS011;15275;51.716;14.324;2023-02-13T07:28:57;10.50;;;5.57;;
27939;SDS011;15275;51.716;14.324;2023-02-13T07:31:23;10.43;;;4.60;;
27939;SDS011;15275;51.716;14.324;2023-02-13T07:33:49;8.70;;;5.05;;
27939;SDS011;15275;51.716;14.324;2023-02-13T07:36:15;12.65;;;5.15;;
27939;SDS011;15275;51.716;14.324;2023-02-13T07:38:41;9.40;;;4.72;;
27939;SDS011;15275;51.716;14.324;2023-02-13T07:41:07;9.77;;;4.03;;
27939;SDS011;15275;51.716;14.324;2023-02-13T07:43:33;9.70;;;5.22;;
27939;SDS011;15275;51.716;14.324;2023-02-13T07:45:59;7.72;;;4.50;;
27939;SDS011;15275;51.716;14.324;2023-02-13T07:48:27;11.02;;;5.35;;
27939;SDS011;15275;51.716;14.324;2023-02-13T07:50:58;8.27;;;4.40;;
27939;SDS011;15275;51.716;14.324;2023-02-13T07:53:26;7.25;;;4.38;;
27939;SDS011;15275;51.716;14.324;2023-02-13T07:55:53;9.43;;;4.22;;
27939;SDS011;15275;51.716;14.324;2023-02-13T07:58:19;5.03;;;3.33;;
27939;SDS011;15275;51.716;14.324;2023-02-13T08:00:45;5.15;;;2.90;;
27939;SDS011;15275;51.716;14.324;2023-02-13T08:03:10;5.03;;;3.50;;
27939;SDS011;15275;51.716;14.324;2023-02-13T08:05:36;5.53;;;3.58;;
27939;SDS011;15275;51.716;14.324;2023-02-13T08:08:03;7.13;;;3.47;;
27939;SDS011;15275;51.716;14.324;2023-02-13T08:10:29;6.13;;;3.58;;
27939;SDS011;15275;51.716;14.324;2023-02-13T08:13:13;4.82;;;3.13;;
27939;SDS011;15275;51.716;14.324;2023-02-13T08:15:41;6.25;;;3.33;;
27939;SDS011;15275;51.716;14.324;2023-02-13T08:18:08;4.72;;;3.03;;
27939;SDS011;15275;51.716;14.324;2023-02-13T08:20:34;4.53;;;3.03;;
27939;SDS011;15275;51.716;14.324;2023-02-13T08:23:01;5.55;;;3.05;;
27939;SDS011;15275;51.716;14.324;2023-02-13T08:25:32;5.25;;;3.30;;
27939;SDS011;15275;51.716;14.324;2023-02-13T08:27:58;9.18;;;3.22;;
27939;SDS011;15275;51.716;14.324;2023-02-13T08:30:25;6.93;;;4.03;;
27939;SDS011;15275;51.716;14.324;2023-02-13T08:32:52;7.82;;;3.80;;
27939;SDS011;15275;51.716;14.324;2023-02-13T08:35:19;6.75;;;3.90;;
27939;SDS011;15275;51.716;14.324;2023-02-13T08:37:46;6.15;;;3.88;;
27939;SDS011;15275;51.716;14.324;2023-02-13T08:40:12;5.60;;;3.55;;
27939;SDS011;15275;51.716;14.324;2023-02-13T08:42:38;7.45;;;4.38;;
27939;SDS011;15275;51.716;14.324;2023-02-13T08:45:04;11.40;;;4.53;;
27939;SDS011;15275;51.716;14.324;2023-02-13T08:47:31;8.15;;;4.72;;
27939;SDS011;15275;51.716;14.324;2023-02-13T08:49:56;8.98;;;4.63;;
27939;SDS011;15275;51.716;14.324;2023-02-13T08:52:22;11.20;;;6.35;;
27939;SDS011;15275;51.716;14.324;2023-02-13T08:54:48;7.43;;;4.13;;
27939;SDS011;15275;51.716;14.324;2023-02-13T08:57:14;10.35;;;5.30;;
27939;SDS011;15275;51.716;14.324;2023-02-13T08:59:40;8.65;;;5.35;;
27939;SDS011;15275;51.716;14.324;2023-02-13T09:02:06;9.25;;;5.88;;
27939;SDS011;15275;51.716;14.324;2023-02-13T09:04:35;8.82;;;5.43;;
27939;SDS011;15275;51.716;14.324;2023-02-13T09:07:01;12.20;;;5.50;;
27939;SDS011;15275;51.716;14.324;2023-02-13T09:09:27;8.88;;;5.20;;
27939;SDS011;15275;51.716;14.324;2023-02-13T09:11:53;9.38;;;5.47;;
27939;SDS011;15275;51.716;14.324;2023-02-13T09:14:21;10.00;;;5.30;;
27939;SDS011;15275;51.716;14.324;2023-02-13T09:16:50;12.50;;;5.15;;
27939;SDS011;15275;51.716;14.324;2023-02-13T09:19:16;9.20;;;5.20;;
27939;SDS011;15275;51.716;14.324;2023-02-13T09:21:42;11.15;;;5.45;;
27939;SDS011;15275;51.716;14.324;2023-02-13T09:24:08;8.43;;;4.95;;
27939;SDS011;15275;51.716;14.324;2023-02-13T09:26:35;14.38;;;5.80;;
27939;SDS011;15275;51.716;14.324;2023-02-13T09:29:01;10.63;;;5.28;;
27939;SDS011;15275;51.716;14.324;2023-02-13T09:31:27;8.23;;;4.38;;
27939;SDS011;15275;51.716;14.324;2023-02-13T09:33:53;7.97;;;5.15;;
27939;SDS011;15275;51.716;14.324;2023-02-13T09:36:20;8.93;;;5.50;;
27939;SDS011;15275;51.716;14.324;2023-02-13T09:38:52;9.88;;;6.25;;
27939;SDS011;15275;51.716;14.324;2023-02-13T09:41:39;8.02;;;5.03;;
27939;SDS011;15275;51.716;14.324;2023-02-13T09:50:05;8.70;;;5.20;;
27939;SDS011;15275;51.716;14.324;2023-02-13T09:52:54;11.57;;;6.20;;
27939;SDS011;15275;51.716;14.324;2023-02-13T09:55:23;9.40;;;5.25;;
27939;SDS011;15275;51.716;14.324;2023-02-13T09:58:47;8.38;;;5.13;;
27939;SDS011;15275;51.716;14.324;2023-02-13T10:01:25;10.57;;;5.35;;
27939;SDS011;15275;51.716;14.324;2023-02-13T10:07:23;9.93;;;5.15;;
27939;SDS011;15275;51.716;14.324;2023-02-13T10:10:01;8.07;;;5.13;;
27939;SDS011;15275;51.716;14.324;2023-02-13T10:12:55;13.27;;;5.28;;
27939;SDS011;15275;51.716;14.324;2023-02-13T10:19:45;7.65;;;4.43;;
27939;SDS011;15275;51.716;14.324;2023-02-13T10:22:04;8.40;;;4.25;;
27939;SDS011;15275;51.716;14.324;2023-02-13T10:35:35;8.45;;;4.65;;
27939;SDS011;15275;51.716;14.324;2023-02-13T10:38:05;13.02;;;4.80;;
27939;SDS011;15275;51.716;14.324;2023-02-13T10:40:47;10.00;;;4.90;;
27939;SDS011;15275;51.716;14.324;2023-02-13T10:58:14;8.02;;;4.20;;
27939;SDS011;15275;51.716;14.324;2023-02-13T11:01:48;7.82;;;4.25;;
27939;SDS011;15275;51.716;14.324;2023-02-13T11:03:59;7.38;;;4.07;;
27939;SDS011;15275;51.716;14.324;2023-02-13T11:06:37;8.13;;;4.68;;
27939;SDS011;15275;51.716;14.324;2023-02-13T11:09:13;10.00;;;4.45;;
27939;SDS011;15275;51.716;14.324;2023-02-13T11:11:41;8.23;;;3.83;;
27939;SDS011;15275;51.716;14.324;2023-02-13T11:16:39;8.00;;;4.03;;
27939;SDS011;15275;51.716;14.324;2023-02-13T11:19:23;6.20;;;3.47;;
27939;SDS011;15275;51.716;14.324;2023-02-13T11:22:12;5.95;;;3.22;;
27939;SDS011;15275;51.716;14.324;2023-02-13T11:24:41;4.68;;;2.85;;
27939;SDS011;15275;51.716;14.324;2023-02-13T11:27:21;5.32;;;3.20;;
27939;SDS011;15275;51.716;14.324;2023-02-13T11:29:56;5.53;;;3.22;;
27939;SDS011;15275;51.716;14.324;2023-02-13T11:32:29;5.53;;;3.25;;
27939;SDS011;15275;51.716;14.324;2023-02-13T11:34:59;5.82;;;3.50;;
27939;SDS011;15275;51.716;14.324;2023-02-13T11:40:40;5.97;;;2.92;;
27939;SDS011;15275;51.716;14.324;2023-02-13T11:43:28;8.95;;;3.15;;
27939;SDS011;15275;51.716;14.324;2023-02-13T11:46:13;5.43;;;3.05;;
27939;SDS011;15275;51.716;14.324;2023-02-13T11:48:49;7.05;;;3.53;;
27939;SDS011;15275;51.716;14.324;2023-02-13T11:51:34;8.70;;;3.83;;
27939;SDS011;15275;51.716;14.324;2023-02-13T11:54:04;5.68;;;3.25;;
27939;SDS011;15275;51.716;14.324;2023-02-13T11:56:48;6.53;;;3.15;;
27939;SDS011;15275;51.716;14.324;2023-02-13T11:59:16;6.40;;;3.42;;
27939;SDS011;15275;51.716;14.324;2023-02-13T12:01:42;6.82;;;3.33;;
27939;SDS011;15275;51.716;14.324;2023-02-13T12:04:16;6.32;;;3.67;;
27939;SDS011;15275;51.716;14.324;2023-02-13T12:06:59;4.97;;;3.30;;
27939;SDS011;15275;51.716;14.324;2023-02-13T12:09:37;5.28;;;3.05;;
27939;SDS011;15275;51.716;14.324;2023-02-13T12:12:04;5.68;;;2.95;;
27939;SDS011;15275;51.716;14.324;2023-02-13T12:14:39;6.78;;;2.95;;
27939;SDS011;15275;51.716;14.324;2023-02-13T12:17:16;5.05;;;3.03;;
27939;SDS011;15275;51.716;14.324;2023-02-13T12:19:47;4.75;;;2.50;;
27939;SDS011;15275;51.716;14.324;2023-02-13T12:22:28;4.30;;;2.45;;
27939;SDS011;15275;51.716;14.324;2023-02-13T12:30:54;3.72;;;2.25;;
27939;SDS011;15275;51.716;14.324;2023-02-13T12:33:54;3.28;;;2.30;;
27939;SDS011;15275;51.716;14.324;2023-02-13T12:40:21;3.47;;;1.73;;
27939;SDS011;15275;51.716;14.324;2023-02-13T12:43:08;3.42;;;1.90;;
27939;SDS011;15275;51.716;14.324;2023-02-13T12:46:03;3.75;;;1.63;;
27939;SDS011;15275;51.716;14.324;2023-02-13T12:54:53;5.25;;;2.05;;
27939;SDS011;15275;51.716;14.324;2023-02-13T13:12:50;3.05;;;2.25;;
27939;SDS011;15275;51.716;14.324;2023-02-13T13:15:54;3.15;;;1.73;;
27939;SDS011;15275;51.716;14.324;2023-02-13T13:21:40;4.65;;;2.60;;
27939;SDS011;15275;51.716;14.324;2023-02-13T13:24:17;4.10;;;2.17;;
27939;SDS011;15275;51.716;14.324;2023-02-13T13:27:29;4.43;;;2.50;;
27939;SDS011;15275;51.716;14.324;2023-02-13T13:30:05;4.22;;;3.05;;
27939;SDS011;15275;51.716;14.324;2023-02-13T13:32:51;4.65;;;2.60;;
27939;SDS011;15275;51.716;14.324;2023-02-13T13:35:23;3.45;;;2.30;;
27939;SDS011;15275;51.716;14.324;2023-02-13T13:37:54;5.13;;;2.60;;
27939;SDS011;15275;51.716;14.324;2023-02-13T13:43:48;3.67;;;2.45;;
27939;SDS011;15275;51.716;14.324;2023-02-13T13:49:47;5.80;;;2.72;;
27939;SDS011;15275;51.716;14.324;2023-02-13T13:54:50;3.80;;;2.50;;
27939;SDS011;15275;51.716;14.324;2023-02-13T13:57:17;4.53;;;2.70;;
27939;SDS011;15275;51.716;14.324;2023-02-13T14:05:16;5.90;;;3.05;;
27939;SDS011;15275;51.716;14.324;2023-02-13T14:07:48;3.92;;;2.70;;
27939;SDS011;15275;51.716;14.324;2023-02-13T14:20:38;5.53;;;2.50;;
27939;SDS011;15275;51.716;14.324;2023-02-13T14:31:22;7.57;;;3.25;;
27939;SDS011;15275;51.716;14.324;2023-02-13T14:33:58;3.13;;;2.00;;
27939;SDS011;15275;51.716;14.324;2023-02-13T14:36:35;3.47;;;2.10;;
27939;SDS011;15275;51.716;14.324;2023-02-13T14:47:21;3.28;;;2.25;;
27939;SDS011;15275;51.716;14.324;2023-02-13T14:50:00;3.70;;;2.38;;
27939;SDS011;15275;51.716;14.324;2023-02-13T14:52:38;4.50;;;2.58;;
27939;SDS011;15275;51.716;14.324;2023-02-13T14:55:13;4.30;;;2.45;;
27939;SDS011;15275;51.716;14.324;2023-02-13T14:57:53;5.72;;;2.70;;
27939;SDS011;15275;51.716;14.324;2023-02-13T15:00:33;4.15;;;2.33;;
27939;SDS011;15275;51.716;14.324;2023-02-13T15:03:27;3.80;;;2.20;;
27939;SDS011;15275;51.716;14.324;2023-02-13T15:06:21;5.05;;;2.88;;
27939;SDS011;15275;51.716;14.324;2023-02-13T15:08:58;4.20;;;2.40;;
27939;SDS011;15275;51.716;14.324;2023-02-13T15:11:31;3.70;;;2.15;;
27939;SDS011;15275;51.716;14.324;2023-02-13T15:16:51;3.35;;;2.28;;
27939;SDS011;15275;51.716;14.324;2023-02-13T15:19:44;3.90;;;2.00;;
27939;SDS011;15275;51.716;14.324;2023-02-13T15:22:19;3.67;;;1.88;;
27939;SDS011;15275;51.716;14.324;2023-02-13T15:25:00;3.20;;;1.70;;
27939;SDS011;15275;51.716;14.324;2023-02-13T15:27:30;3.45;;;1.75;;
27939;SDS011;15275;51.716;14.324;2023-02-13T15:30:24;2.72;;;1.50;;
27939;SDS011;15275;51.716;14.324;2023-02-13T15:32:55;4.90;;;2.10;;
27939;SDS011;15275;51.716;14.324;2023-02-13T15:35:43;3.13;;;1.45;;
27939;SDS011;15275;51.716;14.324;2023-02-13T15:41:03;2.63;;;1.95;;
27939;SDS011;15275;51.716;14.324;2023-02-13T15:43:43;3.45;;;1.88;;
27939;SDS011;15275;51.716;14.324;2023-02-13T15:46:25;5.65;;;2.45;;
27939;SDS011;15275;51.716;14.324;2023-02-13T15:48:51;3.47;;;2.10;;
27939;SDS011;15275;51.716;14.324;2023-02-13T15:51:25;5.43;;;2.60;;
27939;SDS011;15275;51.716;14.324;2023-02-13T15:53:56;4.65;;;3.20;;
27939;SDS011;15275;51.716;14.324;2023-02-13T15:56:25;6.07;;;2.67;;
27939;SDS011;15275;51.716;14.324;2023-02-13T15:58:52;4.25;;;2.70;;
27939;SDS011;15275;51.716;14.324;2023-02-13T16:01:20;3.75;;;2.58;;
27939;SDS011;15275;51.716;14.324;2023-02-13T16:03:47;4.13;;;2.38;;
27939;SDS011;15275;51.716;14.324;2023-02-13T16:06:18;4.50;;;2.63;;
27939;SDS011;15275;51.716;14.324;2023-02-13T16:08:53;5.40;;;3.28;;
27939;SDS011;15275;51.716;14.324;2023-02-13T16:11:37;5.40;;;3.55;;
27939;SDS011;15275;51.716;14.324;2023-02-13T16:16:51;6.72;;;3.35;;
27939;SDS011;15275;51.716;14.324;2023-02-13T16:19:50;6.15;;;3.53;;
27939;SDS011;15275;51.716;14.324;2023-02-13T16:27:56;5.00;;;2.85;;
27939;SDS011;15275;51.716;14.324;2023-02-13T16:30:36;5.85;;;3.03;;
27939;SDS011;15275;51.716;14.324;2023-02-13T16:33:11;5.15;;;2.97;;
27939;SDS011;15275;51.716;14.324;2023-02-13T16:35:48;4.25;;;2.30;;
27939;SDS011;15275;51.716;14.324;2023-02-13T16:38:22;5.63;;;2.58;;
27939;SDS011;15275;51.716;14.324;2023-02-13T16:41:01;4.43;;;2.90;;
27939;SDS011;15275;51.716;14.324;2023-02-13T16:43:42;3.55;;;2.33;;
27939;SDS011;15275;51.716;14.324;2023-02-13T16:51:34;5.03;;;3.05;;
27939;SDS011;15275;51.716;14.324;2023-02-13T17:04:47;6.05;;;3.58;;
27939;SDS011;15275;51.716;14.324;2023-02-13T17:07:38;5.63;;;3.45;;
27939;SDS011;15275;51.716;14.324;2023-02-13T17:10:24;4.57;;;2.78;;
27939;SDS011;15275;51.716;14.324;2023-02-13T17:12:56;5.55;;;2.95;;
27939;SDS011;15275;51.716;14.324;2023-02-13T17:15:26;6.88;;;3.65;;
27939;SDS011;15275;51.716;14.324;2023-02-13T17:17:54;9.52;;;3.15;;
27939;SDS011;15275;51.716;14.324;2023-02-13T17:20:22;6.78;;;3.83;;
27939;SDS011;15275;51.716;14.324;2023-02-13T17:22:51;6.65;;;3.22;;
27939;SDS011;15275;51.716;14.324;2023-02-13T17:25:21;7.25;;;3.63;;
27939;SDS011;15275;51.716;14.324;2023-02-13T17:27:50;7.55;;;4.15;;
27939;SDS011;15275;51.716;14.324;2023-02-13T17:30:20;8.25;;;5.03;;
27939;SDS011;15275;51.716;14.324;2023-02-13T17:32:59;10.63;;;5.18;;
27939;SDS011;15275;51.716;14.324;2023-02-13T17:35:30;7.57;;;4.45;;
27939;SDS011;15275;51.716;14.324;2023-02-13T17:37:56;8.70;;;4.55;;
27939;SDS011;15275;51.716;14.324;2023-02-13T17:40:23;7.25;;;4.30;;
27939;SDS011;15275;51.716;14.324;2023-02-13T17:42:53;34.33;;;13.45;;
27939;SDS011;15275;51.716;14.324;2023-02-13T17:45:21;44.05;;;17.30;;
27939;SDS011;15275;51.716;14.324;2023-02-13T17:47:49;21.73;;;11.70;;
27939;SDS011;15275;51.716;14.324;2023-02-13T17:50:15;16.73;;;7.97;;
27939;SDS011;15275;51.716;14.324;2023-02-13T17:52:42;12.27;;;6.50;;
27939;SDS011;15275;51.716;14.324;2023-02-13T17:55:13;8.55;;;5.18;;
27939;SDS011;15275;51.716;14.324;2023-02-13T17:57:52;10.88;;;5.43;;
27939;SDS011;15275;51.716;14.324;2023-02-13T18:00:20;10.52;;;5.03;;
27939;SDS011;15275;51.716;14.324;2023-02-13T18:02:49;9.20;;;5.18;;
27939;SDS011;15275;51.716;14.324;2023-02-13T18:05:18;8.10;;;4.57;;
27939;SDS011;15275;51.716;14.324;2023-02-13T18:07:44;9.32;;;5.50;;
27939;SDS011;15275;51.716;14.324;2023-02-13T18:10:19;12.73;;;6.03;;
27939;SDS011;15275;51.716;14.324;2023-02-13T18:12:48;8.40;;;5.15;;